Time,TemperatureF,DewpointF,PressureIn,WindDirection,WindDirectionDegrees,WindSpeedMPH,WindSpeedGustMPH,Humidity,HourlyPrecipIn,Conditions,Clouds,dailyrainin,SoftwareType,DateUTC
2013-02-02 00:11:00,25.1,11.0,30.38,ENE,74,0.0,2.0,55,0.00,,,0.00,weatherlink.com 1.10,2013-02-02 05:11:00,
2013-02-02 00:26:00,25.1,11.0,30.38,ENE,77,3.0,3.0,55,0.00,,,0.00,weatherlink.com 1.10,2013-02-02 05:26:00,
2013-02-02 00:41:00,24.5,10.0,30.39,East,95,0.0,2.0,55,0.00,,,0.00,weatherlink.com 1.10,2013-02-02 05:41:00,
2013-02-02 00:56:00,24.7,11.0,30.38,East,95,0.0,1.0,56,0.00,,,0.00,weatherlink.com 1.10,2013-02-02 05:56:00,
2013-02-02 01:11:00,24.1,10.0,30.38,East,95,0.0,2.0,56,0.00,,,0.00,weatherlink.com 1.10,2013-02-02 06:11:00,
2013-02-02 01:26:00,23.8,12.0,30.37,East,95,0.0,1.0,62,0.00,,,0.00,weatherlink.com 1.10,2013-02-02 06:26:00,
2013-02-02 01:41:00,23.6,13.0,30.37,East,95,0.0,1.0,65,0.00,,,0.00,weatherlink.com 1.10,2013-02-02 06:41:00,
2013-02-02 01:56:00,23.6,15.0,30.38,East,95,0.0,1.0,69,0.00,,,0.00,weatherlink.com 1.10,2013-02-02 06:56:00,
2013-02-02 02:11:00,23.5,15.0,30.39,East,95,0.0,1.0,69,0.00,,,0.00,weatherlink.com 1.10,2013-02-02 07:11:00,
2013-02-02 02:26:00,23.3,15.0,30.38,East,95,0.0,0.0,69,0.00,,,0.00,weatherlink.com 1.10,2013-02-02 07:26:00,
2013-02-02 02:41:00,23.3,14.0,30.39,East,95,0.0,0.0,68,0.00,,,0.00,weatherlink.com 1.10,2013-02-02 07:41:00,
2013-02-02 02:56:00,23.1,14.0,30.38,East,95,1.0,2.0,68,0.00,,,0.00,weatherlink.com 1.10,2013-02-02 07:56:00,
2013-02-02 03:11:00,23.0,15.0,30.38,East,95,0.0,1.0,72,0.00,,,0.00,weatherlink.com 1.10,2013-02-02 08:11:00,
2013-02-02 03:26:00,22.9,16.0,30.38,East,95,0.0,1.0,75,0.00,,,0.00,weatherlink.com 1.10,2013-02-02 08:26:00,
2013-02-02 03:41:00,22.9,15.0,30.37,East,95,0.0,0.0,72,0.00,,,0.00,weatherlink.com 1.10,2013-02-02 08:41:00,
2013-02-02 03:56:00,23.0,15.0,30.37,East,95,0.0,0.0,70,0.00,,,0.00,weatherlink.com 1.10,2013-02-02 08:56:00,
2013-02-02 04:11:00,23.4,13.0,30.37,East,95,0.0,0.0,65,0.00,,,0.00,weatherlink.com 1.10,2013-02-02 09:11:00,
2013-02-02 04:26:00,23.4,14.0,30.37,East,95,1.0,1.0,66,0.00,,,0.00,weatherlink.com 1.10,2013-02-02 09:26:00,
2013-02-02 04:41:00,23.6,15.0,30.36,East,95,0.0,0.0,70,0.00,,,0.00,weatherlink.com 1.10,2013-02-02 09:41:00,
2013-02-02 04:56:00,23.6,13.0,30.36,East,95,0.0,1.0,65,0.00,,,0.00,weatherlink.com 1.10,2013-02-02 09:56:00,
2013-02-02 05:11:00,23.8,17.0,30.37,East,95,0.0,1.0,74,0.00,,,0.00,weatherlink.com 1.10,2013-02-02 10:11:00,
2013-02-02 05:26:00,23.4,16.0,30.38,East,95,0.0,1.0,72,0.00,,,0.00,weatherlink.com 1.10,2013-02-02 10:26:00,
2013-02-02 05:41:00,23.4,14.0,30.38,East,95,0.0,1.0,67,0.00,,,0.00,weatherlink.com 1.10,2013-02-02 10:41:00,
2013-02-02 05:56:00,23.4,14.0,30.39,East,95,1.0,2.0,68,0.00,,,0.00,weatherlink.com 1.10,2013-02-02 10:56:00,
2013-02-02 06:11:00,23.1,15.0,30.39,East,95,0.0,1.0,70,0.00,,,0.00,weatherlink.com 1.10,2013-02-02 11:11:00,
2013-02-02 06:26:00,22.6,14.0,30.39,East,95,0.0,1.0,69,0.00,,,0.00,weatherlink.com 1.10,2013-02-02 11:26:00,
2013-02-02 06:42:00,22.2,14.0,30.39,East,95,0.0,0.0,70,0.00,,,0.00,weatherlink.com 1.10,2013-02-02 11:42:00,
2013-02-02 06:57:00,22.0,14.0,30.40,East,95,0.0,1.0,72,0.00,,,0.00,weatherlink.com 1.10,2013-02-02 11:57:00,
2013-02-02 07:12:00,22.0,16.0,30.41,East,95,0.0,2.0,76,0.00,,,0.00,weatherlink.com 1.10,2013-02-02 12:12:00,
2013-02-02 07:27:00,22.1,14.0,30.41,East,95,0.0,2.0,70,0.00,,,0.00,weatherlink.com 1.10,2013-02-02 12:27:00,
2013-02-02 07:42:00,22.4,14.0,30.41,East,95,0.0,0.0,70,0.00,,,0.00,weatherlink.com 1.10,2013-02-02 12:42:00,
2013-02-02 07:57:00,22.4,15.0,30.41,East,95,0.0,1.0,72,0.00,,,0.00,weatherlink.com 1.10,2013-02-02 12:57:00,
2013-02-02 08:12:00,23.3,16.0,30.41,East,95,0.0,0.0,73,0.00,,,0.00,weatherlink.com 1.10,2013-02-02 13:12:00,
2013-02-02 08:27:00,24.1,16.0,30.41,East,95,0.0,2.0,71,0.00,,,0.00,weatherlink.com 1.10,2013-02-02 13:27:00,
2013-02-02 08:42:00,24.9,17.0,30.42,East,95,0.0,1.0,72,0.00,,,0.00,weatherlink.com 1.10,2013-02-02 13:42:00,
2013-02-02 08:57:00,27.1,16.0,30.41,South,183,1.0,4.0,62,0.00,,,0.00,weatherlink.com 1.10,2013-02-02 13:57:00,
2013-02-02 09:12:00,27.6,13.0,30.41,WSW,256,3.0,6.0,55,0.00,,,0.00,weatherlink.com 1.10,2013-02-02 14:12:00,
2013-02-02 09:27:00,28.4,12.0,30.41,SW,230,4.0,8.0,51,0.00,,,0.00,weatherlink.com 1.10,2013-02-02 14:27:00,
2013-02-02 09:42:00,28.3,11.0,30.40,SW,230,4.0,8.0,48,0.00,,,0.00,weatherlink.com 1.10,2013-02-02 14:42:00,
2013-02-02 09:57:00,29.4,12.0,30.39,South,172,5.0,6.0,48,0.00,,,0.00,weatherlink.com 1.10,2013-02-02 14:57:00,
2013-02-02 10:12:00,30.2,11.0,30.39,South,183,8.0,9.0,44,0.00,,,0.00,weatherlink.com 1.10,2013-02-02 15:12:00,
2013-02-02 10:27:00,30.9,11.0,30.38,South,172,9.0,11.0,44,0.00,,,0.00,weatherlink.com 1.10,2013-02-02 15:27:00,
2013-02-02 10:42:00,31.4,11.0,30.36,SSW,204,6.0,11.0,42,0.00,,,0.00,weatherlink.com 1.10,2013-02-02 15:42:00,
2013-02-02 10:57:00,32.1,11.0,30.36,WSW,242,3.0,9.0,42,0.00,,,0.00,weatherlink.com 1.10,2013-02-02 15:57:00,
2013-02-02 11:12:00,33.0,12.0,30.35,South,188,6.0,9.0,41,0.00,,,0.00,weatherlink.com 1.10,2013-02-02 16:12:00,
2013-02-02 11:27:00,33.2,11.0,30.34,SSE,155,2.0,12.0,40,0.00,,,0.00,weatherlink.com 1.10,2013-02-02 16:27:00,
2013-02-02 11:42:00,34.9,11.0,30.32,South,180,4.0,10.0,38,0.00,,,0.00,weatherlink.com 1.10,2013-02-02 16:42:00,
2013-02-02 11:57:00,34.8,12.0,30.32,SSW,199,4.0,9.0,39,0.00,,,0.00,weatherlink.com 1.10,2013-02-02 16:57:00,
2013-02-02 12:12:00,35.8,12.0,30.30,WSW,252,4.0,9.0,37,0.00,,,0.00,weatherlink.com 1.10,2013-02-02 17:12:00,
2013-02-02 12:27:00,35.3,12.0,30.29,SSW,209,2.0,9.0,38,0.00,,,0.00,weatherlink.com 1.10,2013-02-02 17:27:00,
2013-02-02 12:42:00,37.0,12.0,30.28,South,173,10.0,11.0,36,0.00,,,0.00,weatherlink.com 1.10,2013-02-02 17:42:00,
2013-02-02 12:57:00,38.6,13.0,30.27,SSW,197,4.0,11.0,35,0.00,,,0.00,weatherlink.com 1.10,2013-02-02 17:57:00,
2013-02-02 13:13:00,38.6,14.0,30.25,SW,216,6.0,10.0,36,0.00,,,0.00,weatherlink.com 1.10,2013-02-02 18:13:00,
2013-02-02 13:28:00,38.9,13.0,30.24,SW,235,6.0,11.0,35,0.00,,,0.00,weatherlink.com 1.10,2013-02-02 18:28:00,
2013-02-02 13:43:00,39.2,14.0,30.23,SSW,206,8.0,12.0,36,0.00,,,0.00,weatherlink.com 1.10,2013-02-02 18:43:00,
2013-02-02 13:58:00,39.1,13.0,30.22,South,184,8.0,9.0,34,0.00,,,0.00,weatherlink.com 1.10,2013-02-02 18:58:00,
2013-02-02 14:13:00,39.3,14.0,30.21,South,191,7.0,11.0,35,0.00,,,0.00,weatherlink.com 1.10,2013-02-02 19:13:00,
2013-02-02 14:28:00,39.7,14.0,30.19,South,177,4.0,10.0,35,0.00,,,0.00,weatherlink.com 1.10,2013-02-02 19:28:00,
2013-02-02 14:43:00,40.5,13.0,30.19,SW,222,4.0,12.0,33,0.00,,,0.00,weatherlink.com 1.10,2013-02-02 19:43:00,
2013-02-02 14:58:00,40.5,13.0,30.18,SW,231,8.0,12.0,33,0.00,,,0.00,weatherlink.com 1.10,2013-02-02 19:58:00,
2013-02-02 15:13:00,40.9,14.0,30.17,SSW,193,7.0,9.0,34,0.00,,,0.00,weatherlink.com 1.10,2013-02-02 20:13:00,
2013-02-02 15:28:00,41.4,15.0,30.16,WSW,252,8.0,13.0,34,0.00,,,0.00,weatherlink.com 1.10,2013-02-02 20:28:00,
2013-02-02 15:43:00,42.8,16.0,30.16,South,183,9.0,14.0,34,0.00,,,0.00,weatherlink.com 1.10,2013-02-02 20:43:00,
2013-02-02 15:58:00,43.3,17.0,30.14,SW,235,5.0,11.0,35,0.00,,,0.00,weatherlink.com 1.10,2013-02-02 20:58:00,
2013-02-02 16:13:00,42.9,19.0,30.14,SW,231,13.0,13.0,39,0.00,,,0.00,weatherlink.com 1.10,2013-02-02 21:13:00,
2013-02-02 16:28:00,42.9,21.0,30.13,WSW,249,5.0,13.0,42,0.00,,,0.00,weatherlink.com 1.10,2013-02-02 21:28:00,
2013-02-02 16:43:00,43.3,21.0,30.13,SW,221,8.0,11.0,41,0.00,,,0.00,weatherlink.com 1.10,2013-02-02 21:43:00,
2013-02-02 16:58:00,42.6,21.0,30.13,SSW,198,7.0,10.0,43,0.00,,,0.00,weatherlink.com 1.10,2013-02-02 21:58:00,
2013-02-02 17:13:00,41.6,24.0,30.13,SSW,195,4.0,10.0,49,0.00,,,0.00,weatherlink.com 1.10,2013-02-02 22:13:00,
2013-02-02 17:28:00,41.2,26.0,30.11,SSW,199,5.0,11.0,54,0.00,,,0.00,weatherlink.com 1.10,2013-02-02 22:28:00,
2013-02-02 17:43:00,40.7,26.0,30.12,WSW,238,7.0,12.0,57,0.00,,,0.00,weatherlink.com 1.10,2013-02-02 22:43:00,
2013-02-02 17:58:00,40.0,28.0,30.11,SW,227,5.0,10.0,63,0.00,,,0.00,weatherlink.com 1.10,2013-02-02 22:58:00,
2013-02-02 18:13:00,39.0,31.0,30.10,SSW,200,4.0,9.0,73,0.00,,,0.00,weatherlink.com 1.10,2013-02-02 23:13:00,
2013-02-02 18:28:00,38.2,32.0,30.09,SW,216,13.0,13.0,79,0.00,,,0.00,weatherlink.com 1.10,2013-02-02 23:28:00,
2013-02-02 18:43:00,38.1,32.0,30.11,WSW,243,7.0,11.0,80,0.00,,,0.00,weatherlink.com 1.10,2013-02-02 23:43:00,
2013-02-02 18:58:00,38.2,33.0,30.10,SSW,212,7.0,15.0,81,0.00,,,0.00,weatherlink.com 1.10,2013-02-02 23:58:00,
2013-02-02 19:13:00,38.3,33.0,30.10,WSW,254,6.0,13.0,80,0.00,,,0.00,weatherlink.com 1.10,2013-02-03 00:13:00,
2013-02-02 19:28:00,38.3,33.0,30.10,West,260,7.0,12.0,80,0.00,,,0.00,weatherlink.com 1.10,2013-02-03 00:28:00,
2013-02-02 19:43:00,38.3,33.0,30.11,SSW,208,5.0,11.0,81,0.00,,,0.00,weatherlink.com 1.10,2013-02-03 00:43:00,
2013-02-02 19:58:00,38.4,33.0,30.11,SW,216,6.0,10.0,82,0.00,,,0.00,weatherlink.com 1.10,2013-02-03 00:58:00,
2013-02-02 20:13:00,38.4,33.0,30.11,SW,231,7.0,11.0,82,0.00,,,0.00,weatherlink.com 1.10,2013-02-03 01:13:00,
2013-02-02 20:28:00,38.8,34.0,30.10,SW,228,10.0,11.0,82,0.00,,,0.00,weatherlink.com 1.10,2013-02-03 01:28:00,
2013-02-02 20:43:00,38.8,34.0,30.11,SW,231,8.0,12.0,82,0.00,,,0.00,weatherlink.com 1.10,2013-02-03 01:43:00,
2013-02-02 20:58:00,39.0,34.0,30.11,WSW,241,7.0,14.0,82,0.00,,,0.00,weatherlink.com 1.10,2013-02-03 01:58:00,
2013-02-02 21:13:00,39.0,34.0,30.11,SW,218,11.0,13.0,82,0.00,,,0.00,weatherlink.com 1.10,2013-02-03 02:13:00,
2013-02-02 21:28:00,38.7,34.0,30.10,SW,227,8.0,12.0,83,0.00,,,0.00,weatherlink.com 1.10,2013-02-03 02:28:00,
2013-02-02 21:43:00,38.3,34.0,30.10,SW,235,4.0,11.0,84,0.00,,,0.00,weatherlink.com 1.10,2013-02-03 02:43:00,
2013-02-02 21:58:00,38.2,34.0,30.10,SW,228,7.0,12.0,84,0.00,,,0.00,weatherlink.com 1.10,2013-02-03 02:58:00,
2013-02-02 22:13:00,37.9,34.0,30.10,SW,214,4.0,9.0,85,0.00,,,0.00,weatherlink.com 1.10,2013-02-03 03:13:00,
2013-02-02 22:28:00,37.9,34.0,30.09,SSW,213,4.0,9.0,85,0.00,,,0.00,weatherlink.com 1.10,2013-02-03 03:28:00,
2013-02-02 22:43:00,37.6,34.0,30.09,WSW,248,6.0,7.0,86,0.00,,,0.00,weatherlink.com 1.10,2013-02-03 03:43:00,
2013-02-02 22:58:00,37.1,34.0,30.09,SW,224,4.0,7.0,87,0.00,,,0.00,weatherlink.com 1.10,2013-02-03 03:58:00,
2013-02-02 23:14:00,37.1,34.0,30.08,SW,217,2.0,5.0,87,0.00,,,0.00,weatherlink.com 1.10,2013-02-03 04:14:00,
2013-02-02 23:29:00,36.8,33.0,30.07,South,174,1.0,4.0,87,0.00,,,0.00,weatherlink.com 1.10,2013-02-03 04:29:00,
2013-02-02 23:44:00,36.6,33.0,30.07,South,174,3.0,3.0,88,0.00,,,0.00,weatherlink.com 1.10,2013-02-03 04:44:00,
2013-02-02 23:59:00,36.3,33.0,30.07,SW,218,0.0,3.0,89,0.00,,,0.00,weatherlink.com 1.10,2013-02-03 04:59:00,